createdAt,value
2022-11-27T06:38:38.139Z,97.93
2022-11-27T06:39:40.165Z,97.83
2022-11-27T06:40:42.184Z,97.93
2022-11-27T06:41:44.188Z,97.93
2022-11-27T06:42:46.335Z,97.93
2022-11-27T06:43:48.334Z,97.83
2022-11-27T06:44:50.349Z,98.04
2022-11-27T06:45:52.440Z,98.04
2022-11-27T06:46:54.414Z,98.14
2022-11-27T06:47:56.431Z,98.04
2022-11-27T06:48:58.533Z,97.93
2022-11-27T06:50:00.536Z,97.72
2022-11-27T06:51:02.548Z,97.57
2022-11-27T06:52:04.555Z,97.26
2022-11-27T06:53:06.640Z,97.26
2022-11-27T06:54:08.645Z,97.10
2022-11-27T06:55:10.644Z,97.10
2022-11-27T06:56:12.650Z,97.30
2022-11-27T06:57:14.661Z,97.51
2022-11-27T06:58:16.697Z,97.61
2022-11-27T06:59:18.721Z,97.57
2022-11-27T07:00:20.745Z,97.26
2022-11-27T07:01:22.857Z,96.95
2022-11-27T07:02:24.910Z,96.74
2022-11-27T07:03:26.941Z,96.42
2022-11-27T07:04:28.948Z,96.53
2022-11-27T07:05:30.957Z,96.74
2022-11-27T07:06:32.965Z,96.95
2022-11-27T07:07:37.589Z,96.85
2022-11-27T07:08:36.411Z,96.49
2022-11-27T07:09:38.415Z,96.28
2022-11-27T07:10:40.428Z,95.97
2022-11-27T07:11:42.454Z,95.86
2022-11-27T07:12:44.483Z,95.86
2022-11-27T07:13:46.498Z,95.86
2022-11-27T07:14:48.505Z,96.01
2022-11-27T07:15:50.514Z,96.22
2022-11-27T07:16:52.575Z,96.32
2022-11-27T07:17:54.590Z,96.42
2022-11-27T07:18:56.627Z,96.42
2022-11-27T07:19:58.654Z,96.53
2022-11-27T07:21:00.657Z,96.74
2022-11-27T07:22:02.658Z,96.59
2022-11-27T07:23:04.688Z,96.49
2022-11-27T07:24:06.738Z,96.38
2022-11-27T07:25:08.748Z,96.07
2022-11-27T07:26:10.738Z,95.76
2022-11-27T07:27:12.765Z,95.66
2022-11-27T07:28:18.642Z,95.66
2022-11-27T07:29:16.705Z,95.66
2022-11-27T07:30:18.739Z,95.76
2022-11-27T07:31:20.806Z,95.76
2022-11-27T07:32:22.806Z,95.86
2022-11-27T07:33:24.813Z,95.82
2022-11-27T07:34:37.385Z,95.61
2022-11-27T07:35:28.408Z,95.51
2022-11-27T07:36:30.422Z,95.30
2022-11-27T07:37:32.425Z,95.51
2022-11-27T07:38:34.444Z,95.61
2022-11-27T07:40:00.879Z,95.40
2022-11-27T07:40:37.935Z,95.66
2022-11-27T07:41:39.942Z,95.55
2022-11-27T07:42:41.947Z,95.76
2022-11-27T07:43:43.962Z,95.97
2022-11-27T07:44:45.969Z,95.97
2022-11-27T07:45:48.019Z,95.92
2022-11-27T07:46:50.054Z,95.82
2022-11-27T07:47:52.083Z,95.61
2022-11-27T07:48:54.083Z,95.82
2022-11-27T07:49:56.100Z,95.72
2022-11-27T07:50:58.117Z,95.56
2022-11-27T07:52:00.130Z,95.25
2022-11-27T07:53:02.137Z,94.94
2022-11-27T07:54:04.167Z,94.94
2022-11-27T07:55:06.191Z,94.63
2022-11-27T07:56:08.207Z,94.28
2022-11-27T07:57:10.216Z,94.42
2022-11-27T07:58:12.204Z,94.28
2022-11-27T07:59:14.232Z,94.07
2022-11-27T08:00:16.241Z,93.86
2022-11-27T08:01:18.426Z,93.65
2022-11-27T08:02:19.355Z,93.45
2022-11-27T08:03:21.362Z,93.45
2022-11-27T08:04:23.941Z,93.65
2022-11-27T08:05:24.882Z,93.86
2022-11-27T08:06:26.883Z,93.86
2022-11-27T08:07:28.962Z,94.07
2022-11-27T08:08:31.000Z,94.28
2022-11-27T08:09:33.005Z,94.17
2022-11-27T08:10:35.035Z,93.82
2022-11-27T08:11:37.059Z,93.40
2022-11-27T08:12:39.067Z,93.20
2022-11-27T08:13:41.094Z,93.24
2022-11-27T08:14:43.247Z,93.45
2022-11-27T08:15:45.238Z,93.61
2022-11-27T08:16:47.358Z,93.40
2022-11-27T08:17:49.393Z,93.51
2022-11-27T08:18:51.404Z,93.30
2022-11-27T08:19:53.400Z,93.40
2022-11-27T08:20:55.406Z,93.20
2022-11-27T08:21:57.425Z,92.94
2022-11-27T08:23:02.773Z,92.63
2022-11-27T08:24:00.823Z,92.63
2022-11-27T08:25:02.851Z,92.73
2022-11-27T08:26:04.856Z,92.63
2022-11-27T08:27:06.900Z,92.42
2022-11-27T08:28:08.911Z,92.42
2022-11-27T08:29:10.939Z,92.48
2022-11-27T08:30:12.969Z,92.59
2022-11-27T08:31:15.047Z,92.59
2022-11-27T08:32:17.084Z,92.07
2022-11-27T08:33:19.090Z,91.96
2022-11-27T08:34:21.109Z,92.17
2022-11-27T08:35:23.116Z,92.17
2022-11-27T08:36:25.203Z,92.38
2022-11-27T08:37:27.220Z,92.48
2022-11-27T08:38:29.254Z,92.32
2022-11-27T08:39:31.232Z,92.32
2022-11-27T08:40:33.241Z,92.42
2022-11-27T08:41:35.246Z,92.69
2022-11-27T08:42:37.265Z,92.69
2022-11-27T08:43:39.289Z,92.07
2022-11-27T08:44:41.593Z,91.65
2022-11-27T08:45:42.684Z,91.65
2022-11-27T08:46:44.650Z,91.44
2022-11-27T08:47:46.674Z,91.34
2022-11-27T08:48:48.657Z,91.13
2022-11-27T08:49:50.675Z,91.65
2022-11-27T08:50:52.682Z,91.65
2022-11-27T08:51:54.708Z,91.34
2022-11-27T08:52:56.744Z,91.55
2022-11-27T08:53:58.761Z,91.55
2022-11-27T08:55:00.762Z,91.65
2022-11-27T08:56:02.764Z,91.51
2022-11-27T08:57:04.776Z,91.30
2022-11-27T08:58:06.818Z,91.20
2022-11-27T08:59:08.844Z,90.53
2022-11-27T09:00:10.853Z,90.22
2022-11-27T09:01:12.893Z,90.12
2022-11-27T09:02:14.881Z,90.02
2022-11-27T09:03:16.936Z,90.02
2022-11-27T09:04:19.078Z,90.12
2022-11-27T09:05:21.079Z,90.12
2022-11-27T09:06:23.108Z,90.02
2022-11-27T09:07:25.191Z,89.39
2022-11-27T09:08:27.182Z,89.70
2022-11-27T09:09:29.191Z,89.70
2022-11-27T09:10:31.201Z,89.25
2022-11-27T09:11:33.228Z,89.14
2022-11-27T09:12:38.215Z,88.83
2022-11-27T09:13:36.686Z,89.04
2022-11-27T09:14:38.857Z,89.04
2022-11-27T09:15:39.907Z,88.73
2022-11-27T09:16:41.993Z,88.94
2022-11-27T09:17:44.017Z,89.14
2022-11-27T09:18:46.037Z,88.83
2022-11-27T09:19:48.038Z,88.83
2022-11-27T09:20:50.273Z,88.69
2022-11-27T09:21:51.197Z,88.48
2022-11-27T09:22:53.221Z,88.17
2022-11-27T09:23:55.238Z,87.76
2022-11-27T09:24:57.240Z,87.71
2022-11-27T09:25:59.245Z,87.40
2022-11-27T09:27:01.256Z,87.51
2022-11-27T09:28:03.278Z,87.30
2022-11-27T09:29:05.351Z,87.20
2022-11-27T09:30:07.365Z,87.06
2022-11-27T09:31:09.368Z,87.06
2022-11-27T09:32:11.436Z,87.06
2022-11-27T09:33:13.439Z,86.85
2022-11-27T09:34:15.468Z,86.43
2022-11-27T09:35:17.548Z,86.33
2022-11-27T09:36:19.563Z,86.12
2022-11-27T09:37:21.590Z,86.12
2022-11-27T09:38:23.607Z,85.91
2022-11-27T09:39:25.656Z,85.60
2022-11-27T09:40:27.663Z,85.60
2022-11-27T09:41:29.696Z,85.15
2022-11-27T09:42:31.719Z,84.94
2022-11-27T09:43:33.727Z,84.84
2022-11-27T09:44:35.744Z,84.70
2022-11-27T09:45:37.771Z,84.39
2022-11-27T09:46:39.770Z,84.39
2022-11-27T09:47:42.085Z,84.49
2022-11-27T09:48:42.966Z,84.28
2022-11-27T09:49:45.027Z,84.39
2022-11-27T09:50:47.034Z,84.28
2022-11-27T09:51:49.060Z,83.97
2022-11-27T09:52:51.066Z,83.97
2022-11-27T09:53:53.072Z,84.08
2022-11-27T09:54:55.089Z,84.04
2022-11-27T09:55:57.097Z,84.60
2022-11-27T09:56:59.126Z,84.28
2022-11-27T09:58:01.133Z,84.04
2022-11-27T09:59:03.165Z,83.97
2022-11-27T10:00:05.186Z,84.08
2022-11-27T10:01:07.205Z,84.18
2022-11-27T10:02:09.286Z,84.25
2022-11-27T10:03:11.398Z,83.83
2022-11-27T10:04:13.431Z,83.73
2022-11-27T10:05:15.786Z,83.31
2022-11-27T10:06:17.137Z,83.21
2022-11-27T10:07:19.228Z,83.07
2022-11-27T10:08:21.220Z,83.48
2022-11-27T10:09:23.233Z,82.97
2022-11-27T10:10:25.257Z,82.93
2022-11-27T10:11:27.243Z,82.93
2022-11-27T10:12:29.271Z,82.83
2022-11-27T10:13:31.277Z,82.93
2022-11-27T10:14:33.307Z,82.79
2022-11-27T10:15:35.351Z,81.12
2022-11-27T10:16:42.863Z,77.71
2022-11-27T10:17:38.804Z,72.71
2022-11-27T10:18:40.821Z,69.27
2022-11-27T10:19:42.836Z,65.77
2022-11-27T10:20:44.858Z,64.15
2022-11-27T10:21:46.870Z,61.30
2022-11-27T10:22:48.904Z,60.64
2022-11-27T10:23:50.941Z,58.55
2022-11-27T10:24:52.977Z,57.81
2022-11-27T10:25:55.028Z,56.64
2022-11-27T10:26:57.065Z,55.70
2022-11-27T10:27:59.079Z,55.04
2022-11-27T10:29:01.100Z,53.19
2022-11-27T10:30:03.137Z,53.34
2022-11-27T10:31:05.225Z,51.67
2022-11-27T10:32:07.303Z,51.93
2022-11-27T10:33:09.304Z,50.39
2022-11-27T10:34:11.320Z,49.78
2022-11-27T10:35:13.361Z,49.48
2022-11-27T10:36:15.397Z,49.93
2022-11-27T10:37:17.457Z,49.93
2022-11-27T10:38:19.475Z,50.49
2022-11-27T10:39:21.558Z,48.63
2022-11-27T10:40:23.596Z,48.70
2022-11-27T10:41:48.349Z,47.72
2022-11-27T10:42:27.136Z,48.10
2022-11-27T10:43:29.157Z,47.65
2022-11-27T10:44:31.196Z,46.62
2022-11-27T10:45:33.215Z,46.19
2022-11-27T10:46:35.239Z,45.99
2022-11-27T10:47:37.259Z,46.30
2022-11-27T10:48:39.297Z,46.30
2022-11-27T10:49:41.310Z,47.02
2022-11-27T10:50:43.320Z,46.12
2022-11-27T10:51:45.344Z,46.60
2022-11-27T10:52:51.123Z,45.89
2022-11-27T10:53:48.843Z,45.17
2022-11-27T10:54:50.839Z,46.47
2022-11-27T10:55:52.877Z,45.97
2022-11-27T10:56:54.919Z,45.01
2022-11-27T10:57:56.956Z,45.99
2022-11-27T10:58:58.970Z,45.87
2022-11-27T11:00:00.969Z,46.07
2022-11-27T11:01:03.046Z,44.79
2022-11-27T11:02:05.149Z,45.17
2022-11-27T11:03:07.132Z,45.19
2022-11-27T11:04:31.290Z,45.72
2022-11-27T11:05:32.779Z,46.22
2022-11-27T11:06:20.506Z,45.94
2022-11-27T11:07:13.505Z,45.86
2022-11-27T11:08:15.534Z,47.13
2022-11-27T11:09:17.571Z,48.92
2022-11-27T11:10:19.575Z,49.29
2022-11-27T11:11:21.608Z,52.05
2022-11-27T11:12:23.637Z,52.61
2022-11-27T11:13:25.650Z,51.87
2022-11-27T11:14:27.675Z,52.50
2022-11-27T11:15:29.690Z,54.30
2022-11-27T11:16:35.352Z,55.17
2022-11-27T11:17:33.491Z,57.11
2022-11-27T11:18:35.483Z,58.15
2022-11-27T11:19:37.503Z,59.22
2022-11-27T11:20:39.510Z,59.56
2022-11-27T11:21:41.545Z,60.53
2022-11-27T11:22:43.597Z,61.82
2022-11-27T11:23:45.610Z,63.31
2022-11-27T11:24:47.627Z,63.77
2022-11-27T11:25:49.628Z,65.00
2022-11-27T11:26:51.650Z,65.44
2022-11-27T11:27:53.696Z,66.22
2022-11-27T11:28:55.756Z,66.73
2022-11-27T11:29:57.784Z,66.97
2022-11-27T11:30:59.812Z,67.27
2022-11-27T11:32:01.889Z,68.10
2022-11-27T11:33:03.920Z,68.54
2022-11-27T11:34:05.916Z,68.98
2022-11-27T11:35:07.925Z,69.50
2022-11-27T11:36:09.950Z,69.39
2022-11-27T11:37:11.979Z,69.73
2022-11-27T11:38:13.994Z,70.04
2022-11-27T11:39:16.023Z,70.76
2022-11-27T11:40:18.061Z,70.45
2022-11-27T11:41:20.041Z,70.66
2022-11-27T11:42:22.071Z,70.97
2022-11-27T11:43:24.087Z,71.07
2022-11-27T11:44:26.099Z,71.07
2022-11-27T11:45:31.351Z,70.79
2022-11-27T11:46:30.242Z,71.00
2022-11-27T11:47:32.230Z,71.10
2022-11-27T11:48:34.248Z,71.72
2022-11-27T11:49:36.244Z,71.72
2022-11-27T11:50:38.300Z,71.92
2022-11-27T11:51:40.332Z,72.57
2022-11-27T11:52:42.421Z,72.57
2022-11-27T11:53:44.450Z,72.57
2022-11-27T11:54:46.458Z,72.78
2022-11-27T11:55:48.515Z,73.40
2022-11-27T11:56:50.548Z,73.84
2022-11-27T11:57:52.557Z,73.95
2022-11-27T11:58:54.579Z,74.05
2022-11-27T11:59:56.595Z,73.84
2022-11-27T12:01:25.338Z,73.98
2022-11-27T12:02:00.055Z,74.80
2022-11-27T12:03:02.068Z,74.39
2022-11-27T12:04:04.143Z,74.35
2022-11-27T12:05:06.173Z,74.25
2022-11-27T12:06:08.174Z,74.39
2022-11-27T12:07:10.183Z,74.60
2022-11-27T12:08:12.278Z,74.60
2022-11-27T12:09:14.370Z,74.90
2022-11-27T12:10:16.377Z,75.11
2022-11-27T12:11:18.384Z,74.90
2022-11-27T12:12:20.389Z,75.11
2022-11-27T12:13:22.416Z,75.11
2022-11-27T12:14:24.442Z,75.42
2022-11-27T12:15:26.459Z,75.01
2022-11-27T12:16:28.497Z,75.21
2022-11-27T12:17:30.525Z,74.90
2022-11-27T12:18:32.535Z,75.21
2022-11-27T12:19:34.569Z,75.52
2022-11-27T12:20:36.599Z,75.42
2022-11-27T12:21:38.622Z,75.52
2022-11-27T12:22:40.672Z,75.52
2022-11-27T12:23:42.680Z,75.62
2022-11-27T12:24:44.717Z,75.73
2022-11-27T12:25:46.725Z,75.73
2022-11-27T12:26:48.733Z,75.62
2022-11-27T12:27:50.741Z,75.52
2022-11-27T12:28:57.617Z,75.73
2022-11-27T12:29:54.178Z,76.14
2022-11-27T12:30:56.187Z,76.24
2022-11-27T12:31:58.288Z,76.45
2022-11-27T12:33:00.296Z,76.24
2022-11-27T12:34:02.302Z,76.04
2022-11-27T12:35:04.404Z,76.04
2022-11-27T12:36:06.408Z,76.14
2022-11-27T12:37:13.584Z,76.24
2022-11-27T12:38:09.892Z,76.24
2022-11-27T12:39:11.899Z,76.24
2022-11-27T12:40:13.943Z,76.14
2022-11-27T12:41:25.416Z,76.24
2022-11-27T12:42:21.775Z,76.45
2022-11-27T12:43:18.663Z,76.34
2022-11-27T12:44:20.670Z,76.69
2022-11-27T12:45:22.689Z,76.79
2022-11-27T12:46:24.813Z,77.00
2022-11-27T12:47:26.828Z,76.89
2022-11-27T12:48:28.836Z,77.00
2022-11-27T12:49:30.867Z,77.41
2022-11-27T12:50:32.887Z,77.31
2022-11-27T12:51:34.919Z,77.20
2022-11-27T12:52:36.945Z,77.10
2022-11-27T12:53:38.942Z,77.20
2022-11-27T12:54:41.188Z,76.89
2022-11-27T12:55:42.195Z,76.89
2022-11-27T12:56:44.201Z,76.69
2022-11-27T12:57:46.229Z,76.79
2022-11-27T12:58:48.239Z,76.79
2022-11-27T12:59:50.246Z,76.55
2022-11-27T13:00:52.293Z,76.45
2022-11-27T13:01:54.406Z,76.34
2022-11-27T13:02:56.529Z,76.24
2022-11-27T13:03:58.520Z,76.14
2022-11-27T13:05:00.547Z,76.34
2022-11-27T13:06:02.564Z,76.24
2022-11-27T13:07:04.571Z,76.55
2022-11-27T13:08:06.595Z,76.76
2022-11-27T13:09:08.598Z,76.55
2022-11-27T13:10:10.607Z,76.45
2022-11-27T13:11:12.641Z,76.34
2022-11-27T13:12:14.648Z,76.34
2022-11-27T13:13:16.656Z,76.14
2022-11-27T13:14:18.665Z,76.04
2022-11-27T13:15:20.673Z,76.14
2022-11-27T13:16:22.756Z,76.14
2022-11-27T13:17:24.727Z,76.04
2022-11-27T13:18:26.757Z,76.24
2022-11-27T13:19:28.765Z,76.14
2022-11-27T13:20:30.768Z,76.34
2022-11-27T13:21:32.774Z,76.45
2022-11-27T13:22:34.805Z,76.45
2022-11-27T13:23:36.812Z,76.66
2022-11-27T13:24:39.253Z,76.66
2022-11-27T13:25:40.389Z,76.66
2022-11-27T13:26:42.408Z,76.24
2022-11-27T13:27:44.431Z,76.34
2022-11-27T13:28:46.463Z,76.14
2022-11-27T13:29:48.448Z,76.14
2022-11-27T13:30:50.459Z,76.11
2022-11-27T13:31:52.476Z,76.04
2022-11-27T13:32:54.459Z,75.90
2022-11-27T13:33:56.467Z,75.93
2022-11-27T13:34:58.494Z,75.93
2022-11-27T13:36:00.502Z,75.90
2022-11-27T13:37:02.550Z,75.90
2022-11-27T13:38:04.576Z,75.90
2022-11-27T13:39:06.588Z,75.79
2022-11-27T13:40:08.595Z,75.79
2022-11-27T13:41:10.616Z,75.79
2022-11-27T13:42:12.653Z,75.59
2022-11-27T13:43:14.712Z,75.59
2022-11-27T13:44:16.726Z,75.90
2022-11-27T13:45:18.730Z,76.00
2022-11-27T13:46:20.826Z,75.69
2022-11-27T13:47:22.827Z,76.00
2022-11-27T13:48:24.842Z,75.90
2022-11-27T13:49:26.853Z,75.76
2022-11-27T13:50:31.468Z,75.39
2022-11-27T13:51:30.425Z,75.28
2022-11-27T13:52:32.441Z,74.84
2022-11-27T13:53:34.449Z,74.73
2022-11-27T13:54:36.483Z,74.84
2022-11-27T13:55:38.511Z,74.84
2022-11-27T13:56:40.514Z,74.73
2022-11-27T13:57:42.534Z,74.84
2022-11-27T13:58:44.540Z,74.63
2022-11-27T13:59:46.555Z,74.53
2022-11-27T14:00:48.620Z,74.42
2022-11-27T14:01:50.623Z,74.32
2022-11-27T14:02:52.615Z,74.32
2022-11-27T14:03:54.610Z,74.53
2022-11-27T14:04:56.901Z,74.53
2022-11-27T14:05:57.786Z,74.84
2022-11-27T14:06:59.816Z,74.73
2022-11-27T14:08:01.927Z,74.73
2022-11-27T14:09:03.914Z,74.63
2022-11-27T14:10:05.896Z,74.53
2022-11-27T14:11:07.910Z,74.53
2022-11-27T14:12:09.906Z,74.42
2022-11-27T14:13:11.922Z,74.53
2022-11-27T14:14:13.930Z,74.77
2022-11-27T14:15:15.925Z,75.18
2022-11-27T14:16:17.975Z,75.18
2022-11-27T14:17:19.992Z,75.28
2022-11-27T14:18:22.028Z,74.97
2022-11-27T14:19:24.041Z,74.67
2022-11-27T14:20:26.052Z,74.56
2022-11-27T14:21:28.080Z,74.67
2022-11-27T14:22:30.095Z,74.67
2022-11-27T14:23:32.112Z,74.67
2022-11-27T14:24:34.181Z,74.67
2022-11-27T14:25:36.213Z,74.87
2022-11-27T14:26:38.217Z,75.07
2022-11-27T14:27:40.260Z,75.21
2022-11-27T14:28:42.285Z,74.90
2022-11-27T14:29:44.313Z,75.01
2022-11-27T14:30:46.346Z,75.11
2022-11-27T14:31:48.382Z,75.01
2022-11-27T14:32:50.380Z,74.70
2022-11-27T14:34:14.118Z,74.90
2022-11-27T14:34:53.788Z,74.80
2022-11-27T14:35:55.821Z,74.90
2022-11-27T14:36:57.844Z,74.80
2022-11-27T14:37:59.852Z,74.90
2022-11-27T14:39:01.920Z,74.70
2022-11-27T14:40:03.930Z,74.90
2022-11-27T14:41:05.935Z,74.90
2022-11-27T14:42:07.925Z,74.90
2022-11-27T14:43:09.949Z,75.01
2022-11-27T14:44:12.010Z,75.32
2022-11-27T14:45:14.016Z,75.35
2022-11-27T14:46:16.098Z,75.45
2022-11-27T14:47:18.122Z,75.66
2022-11-27T14:48:20.129Z,75.66
2022-11-27T14:49:22.148Z,75.87
2022-11-27T14:50:24.153Z,75.97
2022-11-27T14:51:26.158Z,76.21
2022-11-27T14:52:28.197Z,76.42
2022-11-27T14:53:30.234Z,76.62
2022-11-27T14:54:32.270Z,76.93
2022-11-27T14:55:34.887Z,77.14
2022-11-27T14:56:35.857Z,77.28
2022-11-27T14:57:37.884Z,77.38
2022-11-27T14:58:39.896Z,77.48
2022-11-27T14:59:42.153Z,77.58
2022-11-27T15:00:43.199Z,77.69
2022-11-27T15:01:45.245Z,77.79
2022-11-27T15:02:47.388Z,77.89
2022-11-27T15:03:48.369Z,78.00
2022-11-27T15:04:50.443Z,78.10
2022-11-27T15:05:52.452Z,78.10
2022-11-27T15:06:54.445Z,78.21
2022-11-27T15:07:56.639Z,78.30
2022-11-27T15:09:23.735Z,78.30
2022-11-27T15:09:59.060Z,78.44
